Blue Oak Ranch Reserve, California Weather observations

Data are for 10 minute period ending at time listed.
 Day   Time   Solar   Ave.   Ave.  Ave.  Vector  Max.   Baro.   Total    
  of    of     Rad.   Air    Rel.  Wind   Wind   Wind  Press.  Precip.   
Year   Day            Temp.  Hum.  Speed  Dir.   Gust                    
2014   (PST)  Kw/m2    F      %     mph   deg.    mph    mb.     in.     
-------------------------------------------------------------------------
 355   18:50   0.00   55.1    96    2.7   305     4.5   957.0    0.00 
 355   19:00   0.00   55.1    96    3.0   292     5.6   956.9    0.00 
 355   19:10   0.00   55.1    96    4.0   276     6.6   957.0    0.00 
 355   19:20   0.00   55.0    96    3.9   293     6.1   957.0    0.00 
 355   19:30   0.00   55.1    96    3.0   283     5.0   957.0    0.00 
 355   19:40   0.00   55.0    96    3.7   282     5.5   957.0    0.00 
 355   19:50   0.00   55.0    96    4.2   278     5.9   956.9    0.00 
 355   20:00   0.00   54.9    96    3.6   280     5.8   957.0    0.00 
 355   20:10   0.00   54.9    96    3.2   272     6.9   957.0    0.00 
 355   20:20   0.00   54.9    96    3.4   274     6.1   957.0    0.00 
 355   20:30   0.00   54.8    96    3.4   278     5.6   957.1    0.00 
 355   20:40   0.00   54.8    96    3.8   281     6.9   957.1    0.00 
 355   20:50   0.00   54.7    96    4.2   279     6.4   957.1    0.00 
 355   21:00   0.00   54.6    96    4.7   279     6.9   957.1    0.00 
 355   21:10   0.00   54.6    96    3.8   278     6.1   957.1    0.00 
 355   21:20   0.00   54.6    97    4.4   276     6.8   957.0    0.00 
 355   21:30   0.00   54.6    97    3.8   273     6.6   957.0    0.00 
 355   21:40   0.00   54.6    97    4.3   273     6.9   957.1    0.00 
 355   21:50   0.00   54.6    97    3.9   268     6.7   957.1    0.00 
 355   22:00   0.00   54.6    97    2.7   270     4.9   957.1    0.00 
 355   22:10   0.00   54.6    97    2.9   268     4.6   957.1    0.00 
 355   22:20   0.00   54.6    97    2.8   280     4.6   957.1    0.00 
 355   22:30   0.00   54.6    97    3.1   276     5.2   957.1    0.00 
 355   22:40   0.00   54.6    97    4.0   279     5.8   957.2    0.00 
 355   22:50   0.00   54.6    97    3.5   273     5.3   957.1    0.00 
 355   23:00   0.00   54.6    97    2.9   279     4.6   957.1    0.00 
 355   23:10   0.00   54.6    97    3.2   294     5.6   957.1    0.00 
 355   23:20   0.00   54.3    97    4.1   300     5.6   957.1    0.00 
 355   23:30   0.00   54.1    97    3.6   322     5.8   957.1    0.00 
 355   23:40   0.00   53.7    97    3.9   326     5.5   957.0    0.00 
 355   23:50   0.00   52.8    96    1.1   359     3.1   957.0    0.00 
 356    0:00   0.00   52.0    96    0.5    25     3.0   956.9    0.00 
 356    0:10   0.00   52.9    97    2.9     6     5.7   957.0    0.00 
 356    0:20   0.00   52.9    96    1.4   354     2.4   957.0    0.00 
 356    0:30   0.00   53.0    96    2.3     4     3.8   956.9    0.00 
 356    0:40   0.00   53.1    96    2.8     3     4.2   956.8    0.00 
 356    0:50   0.00   53.1    96    2.2   338     5.0   956.7    0.00 
 356    1:00   0.00   52.8    96    2.5   317     4.1   956.6    0.00 
 356    1:10   0.00   51.7    96    3.7   294     5.3   956.5    0.00 
 356    1:20   0.00   52.1    96    2.4   298     3.9   956.6    0.00 
 356    1:30   0.00   52.7    96    2.9   325     4.9   956.6    0.00 
 356    1:40   0.00   52.2    96    2.5    15     4.3   956.7    0.00 
 356    1:50   0.00   51.9    96    3.5    48     5.8   956.6    0.00 
 356    2:00   0.00   51.3    96    2.0    10     4.2   956.5    0.00 
 356    2:10   0.00   50.4    96    2.8   288     4.7   956.6    0.00 
 356    2:20   0.00   50.4    97    1.8   291     4.8   956.6    0.00 
 356    2:30   0.00   50.1    96    1.1    28     2.6   956.6    0.00 
 356    2:40   0.00   50.0    97    2.1     6     2.9   956.6    0.00 
 356    2:50   0.00   49.9    97    1.1    58     2.2   956.6    0.00 
 356    3:00   0.00   50.1    97    1.8    74     3.3   956.7    0.00 
 356    3:10   0.00   50.4    97    2.1    65     3.5   956.7    0.00 
 356    3:20   0.00   50.8    97    1.9    68     3.9   956.7    0.00 
 356    3:30   0.00   50.8    97    1.6    58     3.4   956.6    0.00 
 356    3:40   0.00   50.8    97    0.5    87     1.5   956.5    0.00 
 356    3:50   0.00   50.5    97    0.6    87     2.4   956.4    0.00 
 356    4:00   0.00   50.1    97    2.1    51     3.7   956.3    0.00 
 356    4:10   0.00   49.9    97    2.0    24     3.1   956.3    0.00 
 356    4:20   0.00   49.4    97    1.5    46     2.9   956.2    0.00 
 356    4:30   0.00   48.9    97    1.1    59     1.8   956.2    0.00 
 356    4:40   0.00   48.5    97    1.5    64     2.5   956.3    0.00 
 356    4:50   0.00   48.1    97    2.0    79     3.3   956.3    0.00 
 356    5:00   0.00   48.2    97    1.2    41     2.3   956.4    0.00 
 356    5:10   0.00   48.3    97    1.1    48     2.3   956.3    0.00 
 356    5:20   0.00   48.3    97    1.4    30     2.6   956.3    0.00 
 356    5:30   0.00   47.9    97    0.9    56     1.8   956.2    0.00 
 356    5:40   0.00   47.7    97    1.9    60     3.0   956.1    0.00 
 356    5:50   0.00   46.7    97    1.4   102     2.5   956.0    0.00 
 356    6:00   0.00   46.4    97    1.6   295     3.8   955.9    0.00 
 356    6:10   0.00   46.4    97    0.5   350     2.1   956.1    0.00 
 356    6:20   0.00   46.7    97    2.1    61     3.1   956.3    0.00 
 356    6:30   0.00   47.9    97    3.1    49     4.5   956.3    0.00 
 356    6:40   0.00   47.9    97    2.7    48     4.2   956.3    0.01 
 356    6:50   0.00   49.1    97    3.9    37     5.1   956.3    0.00 
 356    7:00   0.00   49.3    97    2.5    36     3.6   956.2    0.00 
 356    7:10   0.00   48.8    97    3.0    30     4.0   956.3    0.00 
 356    7:20   0.01   48.5    97    1.2    37     2.2   956.4    0.00 
 356    7:30   0.01   48.4    97    1.6    73     3.1   956.4    0.00 
 356    7:40   0.01   47.9    97    1.1    64     2.3   956.4    0.00 
 356    7:50   0.02   47.3    97    0.8    51     1.8   956.4    0.00 
 356    8:00   0.05   46.5    97    1.1    54     1.8   956.4    0.00 
 356    8:10   0.10   46.9    97    1.6    74     2.8   956.3    0.00 
 356    8:20   0.12   48.0    97    0.3   138     1.0   956.2    0.00 
 356    8:30   0.15   49.6    97    0.5   268     1.1   956.3    0.00 
 356    8:40   0.13   49.1    96    0.6    83     1.8   956.3    0.00 
 356    8:50   0.12   49.4    97    0.7    85     1.4   956.5    0.00 
 356    9:00   0.11   50.0    97    0.8    74     2.0   956.5    0.00 
 356    9:10   0.12   50.8    97    0.1    96     0.9   956.5    0.00 
 356    9:20   0.23   52.2    97    0.1   276     0.9   956.5    0.00 
 356    9:30   0.29   54.0    96    0.3   188     1.7   956.5    0.00 
 356    9:40   0.19   54.2    95    0.6   250     3.2   956.5    0.00 
 356    9:50   0.19   54.4    95    2.1   237     3.2   956.6    0.00 
 356   10:00   0.20   54.0    95    1.0   185     3.3   956.5    0.00 
 356   10:10   0.22   54.8    95    0.8   273     2.9   956.5    0.00 
 356   10:20   0.23   54.8    95    0.9   198     2.3   956.3    0.00 
 356   10:30   0.24   54.9    95    1.9   224     3.9   956.2    0.00 
 356   10:40   0.20   54.5    94    2.3   186     3.9   956.0    0.00 
 356   10:50   0.21   54.3    95    2.2   235     4.2   956.0    0.00 
 356   11:00   0.23   54.3    95    3.4   262     5.6   956.1    0.00 
 356   11:10   0.16   54.6    95    2.8   238     6.1   956.1    0.00 
 356   11:20   0.15   54.8    95    2.5   257     5.7   956.0    0.00 
 356   11:30   0.17   55.1    95    3.8   269     7.5   955.9    0.00 
 356   11:40   0.18   55.0    94    4.8   282     7.2   955.8    0.00 
 356   11:50   0.21   54.9    94    4.6   280     6.3   955.5    0.00 
 356   12:00   0.23   55.2    94    3.3   265     4.7   955.2    0.00 
 356   12:10   0.39   56.3    92    3.4   261     5.8   955.0    0.00 
 356   12:20   0.36   57.5    88    4.3   268     6.6   954.8    0.00 
 356   12:30   0.38   58.2    85    4.5   244     6.1   954.6    0.00 
 356   12:40   0.27   57.2    88    4.8   231     7.2   954.5    0.00 
 356   12:50   0.24   56.3    91    4.8   243     7.1   954.4    0.00 
 356   13:00   0.20   55.7    92    5.6   245     9.9   954.2    0.00 
 356   13:10   0.18   55.3    94    3.9   222     6.1   954.1    0.00 
 356   13:20   0.15   56.1    94    3.7   266     6.7   954.1    0.00 
 356   13:30   0.14   55.8    93    6.1   288     8.2   954.1    0.00 
 356   13:40   0.13   55.5    94    5.4   284     7.3   953.9    0.00 
 356   13:50   0.13   55.5    94    5.6   284     7.3   953.9    0.00 
 356   14:00   0.14   55.4    94    4.9   286     7.4   953.8    0.00 
 356   14:10   0.19   55.5    94    4.5   273     6.9   953.7    0.00 
 356   14:20   0.22   56.0    93    4.2   282     7.0   953.7    0.00 
 356   14:30   0.36   56.5    92    2.7   240     5.2   953.8    0.00 
 356   14:40   0.36   57.8    88    4.2   226     6.7   953.8    0.00 
 356   14:50   0.44   57.9    87    4.7   233     6.8   953.8    0.00 
 356   15:00   0.28   57.6    86    5.2   258     7.5   953.8    0.00 
 356   15:10   0.22   57.4    87    3.2   243     5.9   953.8    0.00 
 356   15:20   0.11   56.9    88    3.3   244     5.2   953.8    0.00 
 356   15:30   0.06   55.4    90    3.4   229     6.6   953.7    0.00 
 356   15:40   0.05   54.9    92    3.0   262     5.0   953.7    0.00 
 356   15:50   0.06   54.8    93    3.0   293     5.6   953.7    0.00 
 356   16:00   0.07   54.9    93    3.5   269     6.6   953.7    0.00 
 356   16:10   0.07   54.9    93    3.6   283     6.4   953.8    0.00 
 356   16:20   0.07   54.9    92    3.7   277     6.7   953.8    0.00 
 356   16:30   0.05   55.0    92    2.4   260     4.5   953.7    0.00 
 356   16:40   0.06   54.9    92    1.8   292     3.8   953.7    0.00 
 356   16:50   0.03   55.0    92    0.3   292     1.3   953.6    0.00 
 356   17:00   0.01   54.1    91    1.1    46     2.2   953.6    0.00 
 356   17:10   0.01   52.7    92    1.9   354     2.9   953.6    0.00 
 356   17:20   0.00   51.7    92    1.0   352     2.9   953.9    0.00 
 356   17:30   0.00   51.1    93    0.4   143     1.6   954.1    0.00 
 356   17:40   0.00   51.0    94    1.4    92     1.9   954.0    0.00 
 356   17:50   0.00   51.2    94    1.6    60     2.6   954.1    0.00 
 356   18:00   0.00   51.4    94    1.9    57     3.0   954.0    0.00 
 356   18:10   0.00   51.4    94    1.5    68     2.6   954.0    0.00 
 356   18:20   0.00   51.3    95    2.0    70     3.3   954.0    0.00 
 356   18:30   0.00   51.5    95    1.7    63     4.0   953.9    0.00 
 356   18:40   0.00   50.9    95    0.7   324     2.8   954.0    0.00 

Return to Blue Oak Ranch Reserve graphs page.


Western Regional Climate Center,wrcc@dri.edu